Time;durP1;ratioP1;P1;durP2;ratioP2;P2;SDS_P1;SDS_P2;PMS_P1;PMS_P2;Temp;Humidity;BMP_temperature;BMP_pressure;BME280_temperature;BME280_humidity;BME280_pressure;Samples;Min_cycle;Max_cycle;Signal;HPM_P1;HPM_P2
2023/08/18 00:02:22;;;;;;;19.23;17.93;;;21.10;99.90;;;;;;5040327;28;20428;-51
2023/08/18 00:04:47;;;;;;;18.70;17.50;;;21.00;99.90;;;;;;5039060;28;20444;-54
2023/08/18 00:07:13;;;;;;;20.00;18.70;;;21.00;99.90;;;;;;5039720;28;20997;-55
2023/08/18 00:09:39;;;;;;;20.00;18.70;;;20.90;99.90;;;;;;5039562;28;20188;-51
2023/08/18 00:12:05;;;;;;;19.70;18.40;;;20.90;99.90;;;;;;5039973;28;20243;-50
2023/08/18 00:14:31;;;;;;;19.50;18.20;;;20.90;99.90;;;;;;5037186;28;20200;-53
2023/08/18 00:16:57;;;;;;;21.33;19.90;;;20.90;99.90;;;;;;5021812;28;20559;-53
2023/08/18 00:19:23;;;;;;;20.53;19.03;;;20.80;99.90;;;;;;5038951;28;20440;-50
2023/08/18 00:21:48;;;;;;;19.60;18.30;;;20.80;99.90;;;;;;5039539;28;20203;-51
2023/08/18 00:24:14;;;;;;;20.07;18.67;;;20.80;99.90;;;;;;5012726;28;20847;-54
2023/08/18 00:26:39;;;;;;;21.17;19.67;;;20.80;99.90;;;;;;4999672;28;20214;-51
2023/08/18 00:29:05;;;;;;;19.20;18.00;;;20.80;99.90;;;;;;5000301;28;20330;-55
2023/08/18 00:31:30;;;;;;;20.17;18.77;;;20.70;99.90;;;;;;5004774;28;20194;-55
2023/08/18 00:33:56;;;;;;;20.67;19.27;;;20.70;99.90;;;;;;5003449;28;21048;-55
2023/08/18 00:36:22;;;;;;;20.57;19.17;;;20.70;99.90;;;;;;5004843;28;20186;-51
2023/08/18 00:38:47;;;;;;;20.93;19.43;;;20.60;99.90;;;;;;5004651;28;20198;-50
2023/08/18 00:41:13;;;;;;;20.73;19.43;;;20.60;99.90;;;;;;5003815;28;20214;-51
2023/08/18 00:43:39;;;;;;;20.83;19.47;;;20.60;99.90;;;;;;5003521;28;20282;-48
2023/08/18 00:46:05;;;;;;;20.93;19.47;;;20.60;99.90;;;;;;5004597;28;20210;-53
2023/08/18 00:48:31;;;;;;;20.50;19.20;;;20.60;99.90;;;;;;5003703;28;20193;-54
2023/08/18 00:50:58;;;;;;;20.67;19.27;;;20.50;99.90;;;;;;5003182;28;21534;-54
2023/08/18 00:53:24;;;;;;;20.33;18.97;;;20.50;99.90;;;;;;5004618;28;20239;-55
2023/08/18 00:55:51;;;;;;;20.90;19.50;;;20.50;99.90;;;;;;5004077;28;20422;-52
2023/08/18 00:58:17;;;;;;;20.67;19.27;;;20.40;99.90;;;;;;5004170;28;20526;-54
2023/08/18 01:00:44;;;;;;;20.17;18.77;;;20.40;99.90;;;;;;5002094;28;20809;-53
2023/08/18 01:03:10;;;;;;;19.37;18.17;;;20.40;99.90;;;;;;5004246;28;20191;-53
2023/08/18 01:05:36;;;;;;;20.47;19.17;;;20.30;99.90;;;;;;5003664;28;20691;-55
2023/08/18 01:08:01;;;;;;;20.80;19.40;;;20.30;99.90;;;;;;5004139;28;20418;-53
2023/08/18 01:10:30;;;;;;;20.30;19.00;;;20.30;99.90;;;;;;5002732;28;20226;-53
2023/08/18 01:13:21;;;;;;;20.27;18.87;;;20.30;99.90;;;;;;5001741;28;20191;-55
2023/08/18 01:15:51;;;;;;;20.80;19.30;;;20.20;99.90;;;;;;5003325;28;20452;-42
2023/08/18 01:18:18;;;;;;;21.50;20.00;;;20.20;99.90;;;;;;5002740;28;20913;-42
2023/08/18 01:20:44;;;;;;;21.70;20.07;;;20.20;99.90;;;;;;5001538;28;20445;-43
2023/08/18 01:23:10;;;;;;;20.40;19.00;;;20.10;99.90;;;;;;5003206;28;20433;-41
2023/08/18 01:25:35;;;;;;;19.67;18.37;;;20.10;99.90;;;;;;5037987;28;20241;-40
2023/08/18 01:28:02;;;;;;;20.13;18.73;;;20.00;99.90;;;;;;5043160;28;20555;-43
2023/08/18 01:30:34;;;;;;;20.50;19.00;;;20.00;99.90;;;;;;5042153;28;20277;-41
2023/08/18 01:33:16;;;;;;;20.90;19.50;;;20.00;99.90;;;;;;5041818;28;20431;-40
2023/08/18 01:35:44;;;;;;;20.10;18.73;;;20.00;99.90;;;;;;5042368;28;20420;-44
2023/08/18 01:38:11;;;;;;;20.83;19.33;;;20.00;99.90;;;;;;5042140;28;20439;-43
2023/08/18 01:40:38;;;;;;;21.90;20.40;;;19.90;99.90;;;;;;5040535;28;20820;-44
2023/08/18 01:43:04;;;;;;;21.00;19.50;;;19.90;99.90;;;;;;5023742;28;20455;-43
2023/08/18 01:45:32;;;;;;;21.27;19.80;;;19.90;99.90;;;;;;5040754;28;20806;-42
2023/08/18 01:47:57;;;;;;;20.90;19.40;;;19.90;99.90;;;;;;5041940;28;20447;-43
2023/08/18 01:50:23;;;;;;;20.80;19.40;;;19.80;99.90;;;;;;5014796;28;20433;-40
2023/08/18 01:52:49;;;;;;;21.43;19.97;;;19.80;99.90;;;;;;5042169;28;20185;-43
2023/08/18 01:55:14;;;;;;;20.63;19.23;;;19.80;99.90;;;;;;5042464;28;20185;-40
2023/08/18 01:57:40;;;;;;;19.57;18.03;;;19.70;99.90;;;;;;5041893;28;20264;-42
2023/08/18 02:00:06;;;;;;;20.80;19.20;;;19.70;99.90;;;;;;5042112;28;20192;-42
2023/08/18 02:02:32;;;;;;;20.67;19.20;;;19.70;99.90;;;;;;5042652;28;20197;-44
2023/08/18 02:04:57;;;;;;;20.03;18.43;;;19.70;99.90;;;;;;5022944;28;20440;-41
2023/08/18 02:07:23;;;;;;;21.27;19.63;;;19.70;99.90;;;;;;5041779;28;20226;-42
2023/08/18 02:09:49;;;;;;;21.83;20.03;;;19.70;99.90;;;;;;5041901;28;20186;-45
2023/08/18 02:12:14;;;;;;;21.67;20.07;;;19.70;99.90;;;;;;5022672;28;20189;-41
2023/08/18 02:14:40;;;;;;;21.23;19.73;;;19.70;99.90;;;;;;5040708;28;20190;-41
2023/08/18 02:17:05;;;;;;;21.47;19.90;;;19.70;99.90;;;;;;5039299;28;20193;-40
2023/08/18 02:19:31;;;;;;;20.77;19.17;;;19.70;99.90;;;;;;5040585;28;20196;-42
2023/08/18 02:21:57;;;;;;;21.67;20.00;;;19.60;99.90;;;;;;5042148;28;20241;-41
2023/08/18 02:24:22;;;;;;;21.00;19.30;;;19.70;99.90;;;;;;5042105;28;20232;-41
2023/08/18 02:26:48;;;;;;;21.70;20.20;;;19.60;99.90;;;;;;5041152;28;20652;-40
2023/08/18 02:29:13;;;;;;;20.30;18.90;;;19.50;99.90;;;;;;5042245;28;20656;-40
2023/08/18 02:31:39;;;;;;;19.70;18.23;;;19.50;99.90;;;;;;5042237;28;20573;-42
2023/08/18 02:34:05;;;;;;;21.00;19.50;;;19.50;99.90;;;;;;5040434;28;20283;-43
2023/08/18 02:36:30;;;;;;;21.77;20.17;;;19.50;99.90;;;;;;5042228;28;20247;-43
2023/08/18 02:38:56;;;;;;;22.37;20.77;;;19.50;99.90;;;;;;5042019;28;20254;-41
2023/08/18 02:41:23;;;;;;;21.60;20.10;;;19.50;99.90;;;;;;5040485;28;20856;-41
2023/08/18 02:43:49;;;;;;;20.90;19.43;;;19.50;99.90;;;;;;5041822;28;21077;-43
2023/08/18 02:46:16;;;;;;;21.10;19.40;;;19.50;99.90;;;;;;5039989;28;20476;-41
2023/08/18 02:48:41;;;;;;;21.80;20.10;;;19.50;99.90;;;;;;5041272;28;20247;-41
2023/08/18 02:51:08;;;;;;;20.90;19.40;;;19.50;99.90;;;;;;5041253;28;20440;-41
2023/08/18 02:53:35;;;;;;;21.97;20.27;;;19.40;99.90;;;;;;5022732;28;20201;-40
2023/08/18 02:56:02;;;;;;;20.90;19.40;;;19.40;99.90;;;;;;5041050;28;20420;-42
2023/08/18 02:58:29;;;;;;;22.33;20.70;;;19.40;99.90;;;;;;5041254;28;20435;-42
2023/08/18 03:00:55;;;;;;;20.97;19.47;;;19.40;99.90;;;;;;5039756;28;20467;-41
2023/08/18 03:03:21;;;;;;;21.00;19.50;;;19.40;99.90;;;;;;5040776;28;20432;-43
2023/08/18 03:05:47;;;;;;;21.47;19.87;;;19.30;99.90;;;;;;5041350;28;20470;-41
2023/08/18 03:08:13;;;;;;;21.80;20.03;;;19.30;99.90;;;;;;5041092;28;20186;-41
2023/08/18 03:10:38;;;;;;;22.10;20.50;;;19.30;99.90;;;;;;5040970;28;20200;-40
2023/08/18 03:13:04;;;;;;;20.93;19.47;;;19.20;99.90;;;;;;5040709;28;20221;-42
2023/08/18 03:15:30;;;;;;;22.13;20.53;;;19.20;99.90;;;;;;5039182;28;20196;-41
2023/08/18 03:17:57;;;;;;;22.50;20.80;;;19.20;99.90;;;;;;5041172;28;20606;-44
2023/08/18 03:20:22;;;;;;;21.87;20.37;;;19.20;99.90;;;;;;5040609;28;21252;-40
2023/08/18 03:22:48;;;;;;;22.00;20.40;;;19.10;99.90;;;;;;5041114;28;20503;-41
2023/08/18 03:25:13;;;;;;;20.80;19.17;;;19.10;99.90;;;;;;5039496;28;20822;-42
2023/08/18 03:27:40;;;;;;;21.30;19.80;;;19.10;99.90;;;;;;5039890;28;20235;-41
2023/08/18 03:30:07;;;;;;;19.93;18.50;;;19.10;99.90;;;;;;5039621;28;20192;-45
2023/08/18 03:32:32;;;;;;;22.13;20.50;;;19.00;99.90;;;;;;5039227;28;20450;-41
2023/08/18 03:34:58;;;;;;;22.83;21.13;;;19.00;99.90;;;;;;5040198;28;20420;-41
2023/08/18 03:37:24;;;;;;;22.20;20.23;;;19.00;99.90;;;;;;5040102;28;20193;-42
2023/08/18 03:39:54;;;;;;;21.07;19.57;;;19.00;99.90;;;;;;5023255;28;20239;-41
2023/08/18 03:42:19;;;;;;;20.00;18.60;;;19.00;99.90;;;;;;5040032;28;20188;-41
2023/08/18 03:44:45;;;;;;;22.10;20.50;;;18.90;99.90;;;;;;5038083;28;20448;-40
2023/08/18 03:47:10;;;;;;;22.40;20.70;;;18.90;99.90;;;;;;5040889;28;20308;-43
2023/08/18 03:49:36;;;;;;;21.47;19.87;;;18.90;99.90;;;;;;5039040;28;20193;-40
2023/08/18 03:52:01;;;;;;;20.93;19.43;;;18.90;99.90;;;;;;5040284;28;20190;-40
2023/08/18 03:54:27;;;;;;;21.00;19.40;;;18.80;99.90;;;;;;5037367;28;20182;-41
2023/08/18 03:56:53;;;;;;;21.47;20.00;;;18.80;99.90;;;;;;5035808;28;20193;-41
2023/08/18 03:59:18;;;;;;;20.73;19.20;;;18.80;99.90;;;;;;5039030;28;20188;-40
2023/08/18 04:01:44;;;;;;;22.20;20.50;;;18.80;99.90;;;;;;5039631;28;20267;-40
2023/08/18 04:04:10;;;;;;;21.50;19.70;;;18.80;99.90;;;;;;5039587;28;20750;-45
2023/08/18 04:06:35;;;;;;;22.17;20.47;;;18.80;99.90;;;;;;5006981;28;20218;-40
2023/08/18 04:09:08;;;;;;;21.67;20.07;;;18.70;99.90;;;;;;5013641;28;20192;-43
2023/08/18 04:11:34;;;;;;;21.90;20.20;;;18.80;99.90;;;;;;5038475;28;20185;-44
2023/08/18 04:14:01;;;;;;;21.73;20.10;;;18.70;99.90;;;;;;5039556;28;20519;-41
2023/08/18 04:16:27;;;;;;;21.33;19.73;;;18.70;99.90;;;;;;5038979;28;20954;-41
2023/08/18 04:18:52;;;;;;;22.70;21.00;;;18.70;99.90;;;;;;5038151;28;20521;-42
2023/08/18 04:21:18;;;;;;;21.97;20.37;;;18.70;99.90;;;;;;5022408;28;20288;-41
2023/08/18 04:23:44;;;;;;;22.20;20.60;;;18.70;99.90;;;;;;5039358;28;20259;-41
2023/08/18 04:26:12;;;;;;;22.20;20.50;;;18.70;99.90;;;;;;5039430;28;20244;-41
2023/08/18 04:28:38;;;;;;;23.43;21.60;;;18.70;99.90;;;;;;5022160;28;20443;-41
2023/08/18 04:31:04;;;;;;;22.70;21.00;;;18.80;99.90;;;;;;5039784;28;20456;-42
2023/08/18 04:33:29;;;;;;;21.13;19.60;;;18.70;99.90;;;;;;5040101;28;20416;-43
2023/08/18 04:35:55;;;;;;;22.33;20.73;;;18.70;99.90;;;;;;5040470;28;20447;-41
2023/08/18 04:38:21;;;;;;;22.80;20.70;;;18.70;99.90;;;;;;5040327;28;20218;-40
2023/08/18 04:40:59;;;;;;;21.30;19.60;;;18.80;99.90;;;;;;5040125;28;20264;-40
2023/08/18 04:43:25;;;;;;;21.43;19.60;;;18.70;99.90;;;;;;5040213;28;20197;-56
2023/08/18 04:45:52;;;;;;;22.00;20.30;;;18.70;99.90;;;;;;5021952;28;20951;-53
2023/08/18 04:48:19;;;;;;;22.73;20.67;;;18.80;99.90;;;;;;5039968;28;20417;-54
2023/08/18 04:50:44;;;;;;;22.90;21.10;;;18.80;99.90;;;;;;5039986;28;20424;-53
2023/08/18 04:53:10;;;;;;;21.43;19.73;;;18.90;99.90;;;;;;5039020;28;20424;-51
2023/08/18 04:55:36;;;;;;;21.00;19.33;;;18.90;99.90;;;;;;5039807;28;20257;-52
2023/08/18 04:58:02;;;;;;;20.97;19.40;;;18.90;99.90;;;;;;5040191;28;20572;-52
2023/08/18 05:00:28;;;;;;;23.10;21.23;;;19.00;99.90;;;;;;5039267;28;20178;-52
2023/08/18 05:02:54;;;;;;;21.77;20.17;;;19.00;99.90;;;;;;5038674;28;21005;-55
2023/08/18 05:05:20;;;;;;;21.53;19.93;;;19.10;99.90;;;;;;5039874;28;20459;-55
2023/08/18 05:07:45;;;;;;;21.60;20.00;;;19.10;99.90;;;;;;5039595;28;20638;-52
2023/08/18 05:10:11;;;;;;;20.53;19.13;;;19.10;99.90;;;;;;5039960;28;20189;-53
2023/08/18 05:12:37;;;;;;;20.47;18.90;;;19.10;99.90;;;;;;5039814;28;20686;-56
2023/08/18 05:15:03;;;;;;;21.00;19.40;;;19.20;99.90;;;;;;5039878;28;20432;-52
2023/08/18 05:17:29;;;;;;;21.13;19.67;;;19.20;99.90;;;;;;5043985;28;20194;-53
2023/08/18 05:19:55;;;;;;;20.60;19.03;;;19.20;99.90;;;;;;5043567;28;20408;-50
2023/08/18 05:22:21;;;;;;;21.60;20.00;;;19.20;99.90;;;;;;5042705;28;20280;-49
2023/08/18 05:24:48;;;;;;;21.93;20.20;;;19.30;99.90;;;;;;5043147;28;20241;-53
2023/08/18 05:27:14;;;;;;;21.57;19.73;;;19.30;99.90;;;;;;5042820;28;20460;-50
2023/08/18 05:29:40;;;;;;;20.53;19.10;;;19.40;99.90;;;;;;5025294;28;20424;-54
2023/08/18 05:32:05;;;;;;;21.50;19.87;;;19.50;99.90;;;;;;5043001;28;20423;-55
2023/08/18 05:34:31;;;;;;;20.60;19.10;;;19.50;99.90;;;;;;5042943;28;20660;-50
2023/08/18 05:36:57;;;;;;;20.23;18.83;;;19.70;99.90;;;;;;5043218;28;20208;-51
2023/08/18 05:39:22;;;;;;;20.87;19.37;;;19.80;99.90;;;;;;5043003;28;20285;-47
2023/08/18 05:41:48;;;;;;;20.57;19.17;;;19.90;99.90;;;;;;5043267;28;20186;-52
2023/08/18 05:44:13;;;;;;;19.93;18.47;;;19.90;99.90;;;;;;5043070;28;20220;-53
2023/08/18 05:46:39;;;;;;;20.60;19.00;;;20.00;99.90;;;;;;5043174;28;20217;-52
2023/08/18 05:49:04;;;;;;;20.20;18.80;;;20.10;99.90;;;;;;5043119;28;20186;-52
2023/08/18 05:51:30;;;;;;;19.57;18.10;;;20.10;99.90;;;;;;5043025;28;20261;-51
2023/08/18 05:53:56;;;;;;;19.43;18.13;;;20.20;99.90;;;;;;5042200;28;20186;-51
2023/08/18 05:56:22;;;;;;;19.57;18.17;;;20.30;99.90;;;;;;5042418;28;20189;-50
2023/08/18 05:58:47;;;;;;;20.00;18.70;;;20.40;99.90;;;;;;5043178;28;20554;-52
2023/08/18 06:01:14;;;;;;;20.60;19.20;;;20.40;99.90;;;;;;5042060;28;20435;-51
2023/08/18 06:03:41;;;;;;;20.40;18.93;;;20.50;99.90;;;;;;5041316;28;20190;-50
2023/08/18 06:06:06;;;;;;;19.37;18.07;;;20.50;99.90;;;;;;5041997;28;20942;-52
2023/08/18 06:08:32;;;;;;;19.87;18.57;;;20.50;99.90;;;;;;5042755;28;20408;-50
2023/08/18 06:10:58;;;;;;;19.80;18.50;;;20.50;99.90;;;;;;5042714;28;20228;-52
2023/08/18 06:13:23;;;;;;;19.83;18.43;;;20.60;99.90;;;;;;5042637;28;20182;-54
2023/08/18 06:15:54;;;;;;;19.20;18.00;;;20.70;99.90;;;;;;5042675;28;20190;-49
2023/08/18 06:18:22;;;;;;;19.50;18.10;;;20.70;99.90;;;;;;5042274;28;20213;-53
2023/08/18 06:20:50;;;;;;;19.80;18.20;;;20.80;99.90;;;;;;5018170;28;20428;-54
2023/08/18 06:23:15;;;;;;;19.67;18.37;;;20.80;99.90;;;;;;5041944;28;20467;-50
2023/08/18 06:25:41;;;;;;;20.77;19.37;;;20.80;99.90;;;;;;5041946;28;20468;-55
2023/08/18 06:28:07;;;;;;;20.07;18.70;;;20.90;99.90;;;;;;5041990;28;20186;-48
2023/08/18 06:30:32;;;;;;;19.50;18.30;;;21.00;99.90;;;;;;5041718;28;20295;-54
2023/08/18 06:32:58;;;;;;;19.43;18.13;;;21.10;99.90;;;;;;5042191;28;20843;-54
2023/08/18 06:35:24;;;;;;;19.80;18.43;;;21.20;99.90;;;;;;5042020;28;20182;-54
2023/08/18 06:37:49;;;;;;;19.73;18.33;;;21.30;99.90;;;;;;5041739;28;20477;-52
2023/08/18 06:40:15;;;;;;;19.40;18.17;;;21.30;99.90;;;;;;5042148;28;20275;-50
2023/08/18 06:42:41;;;;;;;19.70;18.50;;;21.40;99.90;;;;;;5040742;28;20190;-54
2023/08/18 06:45:07;;;;;;;20.10;18.70;;;21.50;99.90;;;;;;5041568;28;20652;-53
2023/08/18 06:47:33;;;;;;;19.70;18.30;;;21.60;99.90;;;;;;5041439;28;20251;-52
2023/08/18 06:49:59;;;;;;;19.27;17.83;;;21.70;99.90;;;;;;5041292;28;20416;-55
2023/08/18 06:52:26;;;;;;;20.37;19.07;;;21.70;99.90;;;;;;5022715;28;20268;-54
2023/08/18 06:54:51;;;;;;;19.80;18.50;;;21.80;99.90;;;;;;5040908;28;20460;-53
2023/08/18 06:57:17;;;;;;;19.83;18.43;;;21.90;99.90;;;;;;5041107;28;20462;-51
2023/08/18 06:59:43;;;;;;;21.23;19.73;;;22.00;99.90;;;;;;5041466;28;21102;-54
2023/08/18 07:02:08;;;;;;;18.23;17.03;;;22.20;99.90;;;;;;5040304;28;20190;-53
2023/08/18 07:04:34;;;;;;;18.73;17.43;;;22.30;99.90;;;;;;5041277;28;20194;-52
2023/08/18 07:06:59;;;;;;;19.80;18.40;;;22.40;99.90;;;;;;5040260;28;20198;-52
2023/08/18 07:09:25;;;;;;;20.03;18.67;;;22.50;99.90;;;;;;5041180;28;20190;-55
2023/08/18 07:11:51;;;;;;;19.07;17.77;;;22.60;99.90;;;;;;5040657;28;20193;-52
2023/08/18 07:14:16;;;;;;;19.37;18.07;;;22.60;99.90;;;;;;5023397;28;20178;-51
2023/08/18 07:16:43;;;;;;;18.20;17.00;;;22.70;99.90;;;;;;5040533;28;20239;-51
2023/08/18 07:19:09;;;;;;;19.67;18.37;;;22.80;99.90;;;;;;5040831;28;20194;-54
2023/08/18 07:21:34;;;;;;;18.63;17.43;;;22.80;99.90;;;;;;5040675;28;20439;-54
2023/08/18 07:24:00;;;;;;;18.70;17.40;;;22.90;99.90;;;;;;5039354;28;20311;-54
2023/08/18 07:26:26;;;;;;;18.70;17.50;;;23.00;99.90;;;;;;5040388;28;20220;-54
2023/08/18 07:28:52;;;;;;;19.20;18.00;;;23.10;99.90;;;;;;5040948;28;20958;-51
2023/08/18 07:31:17;;;;;;;18.90;17.70;;;23.20;99.90;;;;;;5040354;28;20193;-51
2023/08/18 07:33:43;;;;;;;19.10;17.80;;;23.30;99.90;;;;;;5040655;28;20660;-52
2023/08/18 07:36:09;;;;;;;18.93;17.63;;;23.40;99.90;;;;;;5040148;28;20632;-51
2023/08/18 07:38:35;;;;;;;20.17;18.87;;;23.60;99.90;;;;;;5040482;28;20424;-54
2023/08/18 07:41:01;;;;;;;19.07;17.70;;;23.70;99.90;;;;;;5040757;28;20178;-50
2023/08/18 07:43:26;;;;;;;19.83;18.53;;;23.80;99.90;;;;;;5040831;28;20181;-53
2023/08/18 07:45:52;;;;;;;19.40;18.10;;;23.80;99.90;;;;;;5038989;28;21121;-53
2023/08/18 07:48:17;;;;;;;20.43;19.13;;;23.90;99.90;;;;;;5038620;28;20188;-54
2023/08/18 07:50:43;;;;;;;21.00;19.50;;;24.00;99.90;;;;;;5039496;28;20190;-51
2023/08/18 07:53:09;;;;;;;21.67;20.27;;;24.00;99.90;;;;;;5038910;28;20254;-53
2023/08/18 07:55:36;;;;;;;19.37;18.07;;;23.90;99.90;;;;;;5039148;28;20182;-51
2023/08/18 07:58:03;;;;;;;19.83;18.53;;;24.00;99.90;;;;;;5019630;28;21052;-55
2023/08/18 08:00:30;;;;;;;19.83;18.53;;;24.10;99.90;;;;;;5039723;28;20428;-42
2023/08/18 08:02:56;;;;;;;20.60;19.30;;;24.40;99.90;;;;;;5039501;28;20428;-47
2023/08/18 08:05:23;;;;;;;19.33;18.03;;;24.50;99.90;;;;;;5039758;28;20423;-42
2023/08/18 08:07:49;;;;;;;20.23;18.93;;;24.50;99.90;;;;;;5040191;28;20456;-45
2023/08/18 08:10:15;;;;;;;18.90;17.80;;;24.60;99.90;;;;;;5039707;28;20447;-42
2023/08/18 08:12:41;;;;;;;20.20;18.93;;;24.80;99.90;;;;;;5039864;28;21217;-43
2023/08/18 08:15:09;;;;;;;19.73;18.43;;;24.90;99.90;;;;;;5018437;28;20420;-42
2023/08/18 08:17:34;;;;;;;19.10;17.80;;;25.00;99.90;;;;;;5038990;28;20436;-47
2023/08/18 08:20:14;;;;;;;18.77;17.57;;;25.10;99.90;;;;;;5039623;28;20431;-43
2023/08/18 08:22:40;;;;;;;20.30;18.90;;;25.30;99.90;;;;;;5038308;28;20750;-42
2023/08/18 08:25:06;;;;;;;19.93;18.63;;;25.40;99.90;;;;;;5037015;28;20480;-43
2023/08/18 08:27:31;;;;;;;19.57;18.27;;;25.60;99.90;;;;;;5039485;28;21106;-43
2023/08/18 08:29:57;;;;;;;19.03;17.83;;;25.70;99.90;;;;;;5040269;28;20427;-44
2023/08/18 08:32:23;;;;;;;20.30;19.00;;;25.70;99.90;;;;;;5037727;28;20229;-42
2023/08/18 08:34:51;;;;;;;19.93;18.50;;;25.80;99.90;;;;;;5038983;28;20201;-43
2023/08/18 08:37:17;;;;;;;19.97;18.40;;;25.90;99.90;;;;;;5040301;28;20691;-44
2023/08/18 08:39:44;;;;;;;19.40;18.10;;;26.00;99.90;;;;;;5021352;28;20435;-41
2023/08/18 08:42:09;;;;;;;20.40;18.97;;;26.20;99.90;;;;;;5039657;28;20416;-41
2023/08/18 08:44:36;;;;;;;18.23;17.13;;;26.40;99.90;;;;;;5037916;28;20467;-44
2023/08/18 08:47:02;;;;;;;19.20;18.00;;;26.70;99.90;;;;;;5035687;28;20460;-40
2023/08/18 08:49:31;;;;;;;19.30;18.10;;;27.10;99.90;;;;;;5038331;28;20754;-43
2023/08/18 08:52:02;;;;;;;18.97;17.77;;;27.30;99.90;;;;;;5041449;28;20194;-42
2023/08/18 08:54:30;;;;;;;20.17;18.90;;;27.60;99.90;;;;;;5039117;28;20420;-44
2023/08/18 08:56:58;;;;;;;19.53;18.33;;;27.80;99.40;;;;;;5014996;28;20420;-46
2023/08/18 08:59:24;;;;;;;18.43;17.33;;;28.20;97.40;;;;;;5038518;28;20570;-42
2023/08/18 09:01:52;;;;;;;19.00;17.80;;;28.60;95.70;;;;;;5043024;28;20416;-41
2023/08/18 09:04:18;;;;;;;17.70;16.70;;;28.90;96.30;;;;;;5042056;28;20450;-43
2023/08/18 09:06:44;;;;;;;18.30;17.20;;;29.30;94.70;;;;;;5043429;28;20571;-44
2023/08/18 09:09:11;;;;;;;17.87;16.87;;;29.70;91.60;;;;;;5042396;28;20446;-44
2023/08/18 09:11:46;;;;;;;19.10;17.90;;;30.10;90.80;;;;;;5041570;28;20423;-46
2023/08/18 09:14:13;;;;;;;18.97;17.87;;;30.70;86.40;;;;;;5042193;28;20423;-47
2023/08/18 09:16:40;;;;;;;17.50;16.60;;;31.20;79.70;;;;;;5038247;28;20420;-43
2023/08/18 09:19:05;;;;;;;18.90;17.80;;;31.60;72.70;;;;;;5039738;28;20427;-44
2023/08/18 09:21:34;;;;;;;18.00;17.00;;;32.10;65.50;;;;;;5039701;28;20817;-47
2023/08/18 09:23:59;;;;;;;17.27;16.33;;;32.20;60.90;;;;;;5039393;28;20238;-43
2023/08/18 09:26:26;;;;;;;19.10;17.90;;;32.50;63.20;;;;;;5040780;28;20861;-44
2023/08/18 09:28:52;;;;;;;19.20;18.20;;;32.80;60.60;;;;;;5041331;28;20239;-47
2023/08/18 09:31:19;;;;;;;18.20;17.20;;;33.20;58.00;;;;;;5037750;28;20428;-41
2023/08/18 09:33:45;;;;;;;18.37;17.47;;;33.90;54.00;;;;;;5041746;28;20242;-43
2023/08/18 09:36:14;;;;;;;18.20;17.20;;;34.30;52.10;;;;;;5041333;28;20420;-42
2023/08/18 09:38:43;;;;;;;19.07;17.87;;;34.50;51.60;;;;;;5024920;28;20185;-46
2023/08/18 09:41:10;;;;;;;17.50;16.60;;;34.90;50.70;;;;;;5043052;28;20420;-44
2023/08/18 09:43:36;;;;;;;18.20;17.20;;;35.50;47.20;;;;;;5042735;28;20956;-44
2023/08/18 09:46:06;;;;;;;19.30;18.20;;;35.50;45.30;;;;;;5042659;28;20895;-46
2023/08/18 09:48:37;;;;;;;19.17;17.97;;;35.30;44.20;;;;;;5043115;28;20454;-43
2023/08/18 09:51:08;;;;;;;19.10;18.00;;;35.20;43.60;;;;;;5041672;28;20436;-43
2023/08/18 09:53:33;;;;;;;18.50;17.40;;;35.10;46.70;;;;;;5042685;28;20462;-42
2023/08/18 09:56:04;;;;;;;19.03;17.87;;;35.80;46.10;;;;;;5043158;28;20408;-45
2023/08/18 09:59:00;;;;;;;18.20;17.20;;;36.10;43.70;;;;;;5043078;28;20851;-44
2023/08/18 10:01:28;;;;;;;18.70;17.70;;;36.20;43.30;;;;;;5041431;28;20432;-44
2023/08/18 10:03:54;;;;;;;17.73;16.83;;;36.50;43.20;;;;;;5042785;28;20937;-42
2023/08/18 10:06:21;;;;;;;18.23;17.23;;;37.00;40.30;;;;;;5042542;28;20524;-42
2023/08/18 10:08:47;;;;;;;17.70;16.80;;;37.20;38.70;;;;;;5042275;28;20999;-45
2023/08/18 10:11:14;;;;;;;16.83;16.03;;;37.50;38.20;;;;;;5042420;28;20416;-44
2023/08/18 10:13:40;;;;;;;17.17;16.37;;;37.90;36.90;;;;;;5041590;28;20892;-43
2023/08/18 10:16:06;;;;;;;17.10;16.30;;;38.00;34.50;;;;;;5039202;28;20459;-43
2023/08/18 10:18:32;;;;;;;16.87;16.07;;;38.60;35.00;;;;;;5041449;28;20493;-46
2023/08/18 10:20:59;;;;;;;17.13;16.23;;;38.80;33.00;;;;;;5041705;28;21405;-46
2023/08/18 10:23:30;;;;;;;17.80;16.90;;;38.70;34.40;;;;;;5041758;28;20427;-42
2023/08/18 10:25:57;;;;;;;17.10;16.23;;;38.90;34.00;;;;;;5041845;28;20429;-43
2023/08/18 10:28:28;;;;;;;17.37;16.57;;;39.00;31.90;;;;;;5042349;28;20421;-43
2023/08/18 10:31:00;;;;;;;18.30;17.00;;;38.90;32.90;;;;;;5042196;28;20457;-45
2023/08/18 10:33:52;;;;;;;16.63;15.83;;;39.30;31.60;;;;;;5023783;28;20428;-45
2023/08/18 10:36:26;;;;;;;17.30;16.30;;;39.40;30.30;;;;;;5038428;28;20449;-42
2023/08/18 10:38:53;;;;;;;16.43;15.53;;;39.40;30.70;;;;;;5040819;28;20919;-45
2023/08/18 10:41:25;;;;;;;16.90;16.10;;;39.50;30.30;;;;;;5041165;28;20432;-44
2023/08/18 10:43:56;;;;;;;17.03;16.23;;;39.70;31.10;;;;;;5039896;28;20439;-42
2023/08/18 10:46:32;;;;;;;16.77;15.97;;;40.00;29.60;;;;;;5041166;28;20950;-47
2023/08/18 10:48:58;;;;;;;17.57;16.67;;;40.00;28.50;;;;;;5041544;28;20919;-43
2023/08/18 10:51:24;;;;;;;17.43;16.50;;;40.00;27.50;;;;;;5041238;28;20424;-42
2023/08/18 10:53:50;;;;;;;16.77;15.90;;;40.10;29.20;;;;;;5041243;28;20173;-43
2023/08/18 10:56:15;;;;;;;16.43;15.63;;;40.20;28.80;;;;;;5041223;28;20765;-46
2023/08/18 10:58:41;;;;;;;16.63;15.83;;;40.40;28.90;;;;;;5023968;28;20181;-45
2023/08/18 11:01:09;;;;;;;17.40;16.50;;;41.00;27.90;;;;;;5040026;28;20192;-43
2023/08/18 11:03:35;;;;;;;17.00;16.20;;;41.10;27.60;;;;;;5022976;28;20204;-42
2023/08/18 11:06:02;;;;;;;17.13;16.13;;;41.10;28.50;;;;;;5038172;28;20558;-44
2023/08/18 11:08:29;;;;;;;17.37;16.37;;;41.30;26.70;;;;;;5039773;28;20440;-43
2023/08/18 11:10:54;;;;;;;18.60;17.70;;;40.80;27.00;;;;;;5039839;28;20423;-46
2023/08/18 11:13:25;;;;;;;16.80;16.10;;;40.70;27.90;;;;;;5021439;28;20439;-45
2023/08/18 11:15:52;;;;;;;16.00;15.20;;;41.00;26.90;;;;;;5039479;28;20189;-42
2023/08/18 11:18:19;;;;;;;16.57;15.83;;;41.40;26.40;;;;;;5037207;28;20440;-45
2023/08/18 11:20:45;;;;;;;16.53;15.80;;;41.40;26.20;;;;;;5039723;28;20424;-47
2023/08/18 11:23:10;;;;;;;16.20;15.40;;;41.20;26.00;;;;;;5040847;28;20769;-45
2023/08/18 11:25:37;;;;;;;15.50;14.80;;;41.10;26.90;;;;;;5037574;28;20790;-45
2023/08/18 11:28:02;;;;;;;16.20;15.40;;;41.50;26.60;;;;;;5039292;28;20221;-46
2023/08/18 11:30:28;;;;;;;15.77;15.07;;;42.20;25.70;;;;;;5038295;28;20605;-43
2023/08/18 11:32:54;;;;;;;16.13;15.43;;;42.30;24.10;;;;;;5040090;28;20713;-47
2023/08/18 11:35:21;;;;;;;16.03;15.33;;;42.70;23.90;;;;;;5039152;28;20277;-48
2023/08/18 11:37:48;;;;;;;15.93;15.17;;;42.70;22.10;;;;;;5039109;28;20591;-45
2023/08/18 11:40:17;;;;;;;15.30;14.60;;;42.40;21.70;;;;;;5039475;28;20840;-43
2023/08/18 11:42:48;;;;;;;14.90;14.20;;;42.40;22.50;;;;;;5039299;28;20439;-45
2023/08/18 11:45:21;;;;;;;15.23;14.33;;;42.60;22.80;;;;;;5036199;28;20518;-43
2023/08/18 11:47:59;;;;;;;16.30;15.50;;;42.20;22.10;;;;;;5038991;28;20471;-48
2023/08/18 11:50:38;;;;;;;16.40;15.60;;;41.60;22.30;;;;;;5040491;28;20748;-43
2023/08/18 11:53:11;;;;;;;16.30;15.50;;;41.40;22.60;;;;;;5039485;28;21259;-45
2023/08/18 11:55:40;;;;;;;15.53;14.70;;;40.60;23.20;;;;;;5038343;28;20424;-42
2023/08/18 11:58:10;;;;;;;16.50;15.70;;;39.90;25.00;;;;;;5039869;28;20483;-41
2023/08/18 12:00:38;;;;;;;16.80;15.90;;;39.60;25.50;;;;;;5040178;28;20412;-44
2023/08/18 12:03:05;;;;;;;16.07;15.27;;;39.30;25.90;;;;;;5038978;28;20436;-46
2023/08/18 12:05:31;;;;;;;16.50;15.60;;;39.10;25.90;;;;;;5038976;28;20443;-45
2023/08/18 12:07:58;;;;;;;16.70;15.90;;;39.00;26.00;;;;;;5037542;28;20468;-47
2023/08/18 12:10:50;;;;;;;16.27;15.47;;;39.00;26.40;;;;;;5036056;28;20189;-42
2023/08/18 12:13:16;;;;;;;16.53;15.73;;;39.00;26.50;;;;;;5013828;28;20433;-44
2023/08/18 12:15:42;;;;;;;16.00;15.30;;;38.80;25.70;;;;;;5038834;28;20420;-43
2023/08/18 12:18:08;;;;;;;15.27;14.57;;;38.70;26.60;;;;;;5040067;28;20424;-48
2023/08/18 12:20:33;;;;;;;17.00;16.20;;;38.60;26.60;;;;;;5038901;28;20440;-43
2023/08/18 12:22:59;;;;;;;16.20;15.40;;;38.30;26.30;;;;;;5040124;28;20284;-45
2023/08/18 12:25:25;;;;;;;16.53;15.70;;;38.20;27.00;;;;;;5039753;28;20589;-43
2023/08/18 12:27:51;;;;;;;16.23;15.43;;;38.20;26.70;;;;;;5038292;28;21009;-46